sensor_id;sensor_type;location;lat;lon;timestamp;pressure;altitude;pressure_sealevel;temperature;humidity
7906;BME280;13291;40.472;-3.878;2022-09-03T00:00:32;52871.97;;;-139.96;33.64
7906;BME280;13291;40.472;-3.878;2022-09-03T00:03:03;52913.97;;;-139.96;33.79
7906;BME280;13291;40.472;-3.878;2022-09-03T00:05:36;52875.97;;;-139.96;33.71
7906;BME280;13291;40.472;-3.878;2022-09-03T00:08:09;52879.97;;;-139.96;33.66
7906;BME280;13291;40.472;-3.878;2022-09-03T00:10:44;52923.97;;;-139.96;33.80
7906;BME280;13291;40.472;-3.878;2022-09-03T00:13:15;52885.97;;;-139.96;34.00
7906;BME280;13291;40.472;-3.878;2022-09-03T00:15:43;52905.97;;;-139.96;33.60
7906;BME280;13291;40.472;-3.878;2022-09-03T00:18:14;52941.97;;;-139.96;33.82
7906;BME280;13291;40.472;-3.878;2022-09-03T00:20:45;52873.97;;;-139.96;33.64
7906;BME280;13291;40.472;-3.878;2022-09-03T00:23:19;52909.97;;;-139.96;34.10
7906;BME280;13291;40.472;-3.878;2022-09-03T00:25:51;52873.97;;;-139.96;33.89
7906;BME280;13291;40.472;-3.878;2022-09-03T00:28:22;52867.97;;;-139.96;33.95
7906;BME280;13291;40.472;-3.878;2022-09-03T00:30:57;52885.97;;;-139.96;34.16
7906;BME280;13291;40.472;-3.878;2022-09-03T00:33:28;52901.97;;;-139.96;34.14
7906;BME280;13291;40.472;-3.878;2022-09-03T00:36:07;52913.97;;;-139.96;33.99
7906;BME280;13291;40.472;-3.878;2022-09-03T00:38:37;52901.97;;;-139.96;33.73
7906;BME280;13291;40.472;-3.878;2022-09-03T00:41:09;52911.97;;;-139.96;34.04
7906;BME280;13291;40.472;-3.878;2022-09-03T00:43:53;52853.97;;;-139.96;33.83
7906;BME280;13291;40.472;-3.878;2022-09-03T00:46:25;52909.97;;;-139.96;34.19
7906;BME280;13291;40.472;-3.878;2022-09-03T00:49:08;52917.97;;;-139.96;34.21
7906;BME280;13291;40.472;-3.878;2022-09-03T00:51:43;52885.97;;;-139.96;34.38
7906;BME280;13291;40.472;-3.878;2022-09-03T00:54:32;52907.97;;;-139.96;33.86
7906;BME280;13291;40.472;-3.878;2022-09-03T00:57:10;52903.97;;;-139.96;33.88
7906;BME280;13291;40.472;-3.878;2022-09-03T00:59:46;52925.97;;;-139.96;34.07
7906;BME280;13291;40.472;-3.878;2022-09-03T01:02:28;52871.97;;;-139.96;34.29
7906;BME280;13291;40.472;-3.878;2022-09-03T01:05:08;52877.97;;;-139.96;34.40
7906;BME280;13291;40.472;-3.878;2022-09-03T01:07:42;52895.97;;;-139.96;34.22
7906;BME280;13291;40.472;-3.878;2022-09-03T01:10:19;52889.97;;;-139.96;34.71
7906;BME280;13291;40.472;-3.878;2022-09-03T01:12:55;52911.97;;;-139.96;34.87
7906;BME280;13291;40.472;-3.878;2022-09-03T01:15:29;52921.97;;;-139.96;34.69
7906;BME280;13291;40.472;-3.878;2022-09-03T01:18:08;52881.97;;;-139.96;34.19
7906;BME280;13291;40.472;-3.878;2022-09-03T01:20:46;52909.97;;;-139.96;34.32
7906;BME280;13291;40.472;-3.878;2022-09-03T01:23:54;52909.97;;;-139.96;33.85
7906;BME280;13291;40.472;-3.878;2022-09-03T01:26:39;52905.97;;;-139.96;34.57
7906;BME280;13291;40.472;-3.878;2022-09-03T01:29:15;52909.97;;;-139.96;34.24
7906;BME280;13291;40.472;-3.878;2022-09-03T01:31:54;52935.97;;;-139.96;34.23
7906;BME280;13291;40.472;-3.878;2022-09-03T01:34:32;52867.97;;;-139.96;34.41
7906;BME280;13291;40.472;-3.878;2022-09-03T01:37:10;52903.97;;;-139.96;34.21
7906;BME280;13291;40.472;-3.878;2022-09-03T01:39:48;52909.97;;;-139.96;34.09
7906;BME280;13291;40.472;-3.878;2022-09-03T01:42:27;52881.97;;;-139.96;34.31
7906;BME280;13291;40.472;-3.878;2022-09-03T01:45:14;52941.97;;;-139.96;34.52
7906;BME280;13291;40.472;-3.878;2022-09-03T01:47:55;52901.97;;;-139.96;34.16
7906;BME280;13291;40.472;-3.878;2022-09-03T01:50:35;52937.97;;;-139.96;34.35
7906;BME280;13291;40.472;-3.878;2022-09-03T01:53:09;52921.97;;;-139.96;34.55
7906;BME280;13291;40.472;-3.878;2022-09-03T01:55:48;52953.97;;;-139.96;34.69
7906;BME280;13291;40.472;-3.878;2022-09-03T01:58:27;52917.97;;;-139.96;34.85
7906;BME280;13291;40.472;-3.878;2022-09-03T02:01:01;52919.97;;;-139.96;34.62
7906;BME280;13291;40.472;-3.878;2022-09-03T02:03:35;52929.97;;;-139.96;34.52
7906;BME280;13291;40.472;-3.878;2022-09-03T02:06:04;52935.97;;;-139.96;34.50
7906;BME280;13291;40.472;-3.878;2022-09-03T02:08:33;52953.97;;;-139.96;34.40
7906;BME280;13291;40.472;-3.878;2022-09-03T02:11:00;52945.97;;;-139.96;34.31
7906;BME280;13291;40.472;-3.878;2022-09-03T02:13:31;52941.97;;;-139.96;34.35
7906;BME280;13291;40.472;-3.878;2022-09-03T02:16:04;52929.97;;;-139.96;34.67
7906;BME280;13291;40.472;-3.878;2022-09-03T02:18:37;52961.97;;;-139.96;34.50
7906;BME280;13291;40.472;-3.878;2022-09-03T02:21:07;52931.97;;;-139.96;34.78
7906;BME280;13291;40.472;-3.878;2022-09-03T02:23:37;52935.97;;;-139.96;34.67
7906;BME280;13291;40.472;-3.878;2022-09-03T02:26:05;52957.97;;;-139.96;34.99
7906;BME280;13291;40.472;-3.878;2022-09-03T02:28:34;52929.97;;;-139.96;35.56
7906;BME280;13291;40.472;-3.878;2022-09-03T02:31:02;52961.97;;;-139.96;35.17
7906;BME280;13291;40.472;-3.878;2022-09-03T02:33:30;52957.97;;;-139.96;35.47
7906;BME280;13291;40.472;-3.878;2022-09-03T02:35:58;52941.97;;;-139.96;35.65
7906;BME280;13291;40.472;-3.878;2022-09-03T02:38:25;52949.97;;;-139.96;35.66
7906;BME280;13291;40.472;-3.878;2022-09-03T02:40:53;52979.97;;;-139.96;35.58
7906;BME280;13291;40.472;-3.878;2022-09-03T02:43:23;52969.97;;;-139.96;35.64
7906;BME280;13291;40.472;-3.878;2022-09-03T02:45:56;52933.97;;;-139.96;35.79
7906;BME280;13291;40.472;-3.878;2022-09-03T02:48:26;52961.97;;;-139.96;35.72
7906;BME280;13291;40.472;-3.878;2022-09-03T02:50:54;52939.97;;;-139.96;35.58
7906;BME280;13291;40.472;-3.878;2022-09-03T02:53:21;52929.97;;;-139.96;35.89
7906;BME280;13291;40.472;-3.878;2022-09-03T02:55:48;52911.97;;;-139.96;35.94
7906;BME280;13291;40.472;-3.878;2022-09-03T02:58:15;52961.97;;;-139.96;35.77
7906;BME280;13291;40.472;-3.878;2022-09-03T03:00:42;52945.97;;;-139.96;35.85
7906;BME280;13291;40.472;-3.878;2022-09-03T03:03:09;52963.97;;;-139.96;35.70
7906;BME280;13291;40.472;-3.878;2022-09-03T03:05:42;52941.97;;;-139.96;35.73
7906;BME280;13291;40.472;-3.878;2022-09-03T03:08:11;52981.97;;;-139.96;35.96
7906;BME280;13291;40.472;-3.878;2022-09-03T03:10:41;52955.97;;;-139.96;35.85
7906;BME280;13291;40.472;-3.878;2022-09-03T03:13:09;52957.97;;;-139.96;36.15
7906;BME280;13291;40.472;-3.878;2022-09-03T03:15:36;52957.97;;;-139.96;35.99
7906;BME280;13291;40.472;-3.878;2022-09-03T03:18:03;52979.97;;;-139.96;35.91
7906;BME280;13291;40.472;-3.878;2022-09-03T03:20:30;52953.97;;;-139.96;36.05
7906;BME280;13291;40.472;-3.878;2022-09-03T03:23:00;52927.97;;;-139.96;36.17
7906;BME280;13291;40.472;-3.878;2022-09-03T03:25:30;52963.97;;;-139.96;36.36
7906;BME280;13291;40.472;-3.878;2022-09-03T03:27:57;52941.97;;;-139.96;36.44
7906;BME280;13291;40.472;-3.878;2022-09-03T03:30:25;52951.97;;;-139.96;36.56
7906;BME280;13291;40.472;-3.878;2022-09-03T03:32:54;52969.97;;;-139.96;36.50
7906;BME280;13291;40.472;-3.878;2022-09-03T03:35:21;52957.97;;;-139.96;36.67
7906;BME280;13291;40.472;-3.878;2022-09-03T03:37:49;52947.97;;;-139.96;36.69
7906;BME280;13291;40.472;-3.878;2022-09-03T03:40:17;52957.97;;;-139.96;36.85
7906;BME280;13291;40.472;-3.878;2022-09-03T03:42:44;52983.97;;;-139.96;36.51
7906;BME280;13291;40.472;-3.878;2022-09-03T03:45:11;52937.97;;;-139.96;36.23
7906;BME280;13291;40.472;-3.878;2022-09-03T03:47:38;52933.97;;;-139.96;36.21
7906;BME280;13291;40.472;-3.878;2022-09-03T03:50:05;52953.97;;;-139.96;36.15
7906;BME280;13291;40.472;-3.878;2022-09-03T03:52:32;52979.97;;;-139.96;36.06
7906;BME280;13291;40.472;-3.878;2022-09-03T03:54:59;52957.97;;;-139.96;36.10
7906;BME280;13291;40.472;-3.878;2022-09-03T03:57:29;52971.97;;;-139.96;36.10
7906;BME280;13291;40.472;-3.878;2022-09-03T03:59:56;52955.97;;;-139.96;36.55
7906;BME280;13291;40.472;-3.878;2022-09-03T04:02:23;52955.97;;;-139.96;36.27
7906;BME280;13291;40.472;-3.878;2022-09-03T04:04:50;52941.97;;;-139.96;36.50
7906;BME280;13291;40.472;-3.878;2022-09-03T04:07:17;52969.97;;;-139.96;36.49
7906;BME280;13291;40.472;-3.878;2022-09-03T04:09:44;52941.97;;;-139.96;36.48
7906;BME280;13291;40.472;-3.878;2022-09-03T04:12:11;52939.97;;;-139.96;36.32
7906;BME280;13291;40.472;-3.878;2022-09-03T04:14:39;52961.97;;;-139.96;36.24
7906;BME280;13291;40.472;-3.878;2022-09-03T04:17:06;52961.97;;;-139.96;36.32
7906;BME280;13291;40.472;-3.878;2022-09-03T04:19:33;52959.97;;;-139.96;36.27
7906;BME280;13291;40.472;-3.878;2022-09-03T04:22:00;52959.97;;;-139.96;36.38
7906;BME280;13291;40.472;-3.878;2022-09-03T04:24:27;52973.97;;;-139.96;36.58
7906;BME280;13291;40.472;-3.878;2022-09-03T04:26:54;52965.97;;;-139.96;36.62
7906;BME280;13291;40.472;-3.878;2022-09-03T04:29:21;52943.97;;;-139.96;37.21
7906;BME280;13291;40.472;-3.878;2022-09-03T04:31:50;52967.97;;;-139.96;36.37
7906;BME280;13291;40.472;-3.878;2022-09-03T04:34:34;52951.97;;;-139.96;36.04
7906;BME280;13291;40.472;-3.878;2022-09-03T04:37:01;52981.97;;;-139.96;36.53
7906;BME280;13291;40.472;-3.878;2022-09-03T04:39:28;52981.97;;;-139.96;36.44
7906;BME280;13291;40.472;-3.878;2022-09-03T04:41:55;52973.97;;;-139.96;36.20
7906;BME280;13291;40.472;-3.878;2022-09-03T04:44:21;52997.97;;;-139.96;36.61
7906;BME280;13291;40.472;-3.878;2022-09-03T04:46:50;52973.97;;;-139.96;36.62
7906;BME280;13291;40.472;-3.878;2022-09-03T04:49:17;52969.97;;;-139.96;36.75
7906;BME280;13291;40.472;-3.878;2022-09-03T04:51:45;52961.97;;;-139.96;36.85
7906;BME280;13291;40.472;-3.878;2022-09-03T04:54:11;52983.97;;;-139.96;37.01
7906;BME280;13291;40.472;-3.878;2022-09-03T04:56:38;53016.00;;;-139.96;36.79
7906;BME280;13291;40.472;-3.878;2022-09-03T04:59:07;52965.97;;;-139.96;36.90
7906;BME280;13291;40.472;-3.878;2022-09-03T05:01:36;52949.97;;;-139.96;36.90
7906;BME280;13291;40.472;-3.878;2022-09-03T05:04:06;52939.97;;;-139.96;36.79
7906;BME280;13291;40.472;-3.878;2022-09-03T05:06:34;52985.97;;;-139.96;37.34
7906;BME280;13291;40.472;-3.878;2022-09-03T05:09:02;52973.97;;;-139.96;37.66
7906;BME280;13291;40.472;-3.878;2022-09-03T05:11:29;52969.97;;;-139.96;37.37
7906;BME280;13291;40.472;-3.878;2022-09-03T05:13:58;52937.97;;;-139.96;37.26
7906;BME280;13291;40.472;-3.878;2022-09-03T05:16:26;53038.00;;;-139.96;37.38
7906;BME280;13291;40.472;-3.878;2022-09-03T05:18:56;52969.97;;;-139.96;37.50
7906;BME280;13291;40.472;-3.878;2022-09-03T05:21:26;53034.00;;;-139.96;37.74
7906;BME280;13291;40.472;-3.878;2022-09-03T05:23:53;53003.97;;;-139.96;38.25
7906;BME280;13291;40.472;-3.878;2022-09-03T05:26:22;52987.97;;;-139.96;38.30
7906;BME280;13291;40.472;-3.878;2022-09-03T05:28:52;53007.97;;;-139.96;38.00
7906;BME280;13291;40.472;-3.878;2022-09-03T05:31:21;53005.97;;;-139.96;37.91
7906;BME280;13291;40.472;-3.878;2022-09-03T05:33:52;53005.97;;;-139.96;37.80
7906;BME280;13291;40.472;-3.878;2022-09-03T05:36:20;52955.97;;;-139.96;37.92
7906;BME280;13291;40.472;-3.878;2022-09-03T05:38:49;53016.00;;;-139.96;38.02
7906;BME280;13291;40.472;-3.878;2022-09-03T05:41:19;52981.97;;;-139.96;38.02
7906;BME280;13291;40.472;-3.878;2022-09-03T05:43:47;53007.97;;;-139.96;38.14
7906;BME280;13291;40.472;-3.878;2022-09-03T05:46:16;53026.00;;;-139.96;38.47
7906;BME280;13291;40.472;-3.878;2022-09-03T05:48:43;52985.97;;;-139.96;38.26
7906;BME280;13291;40.472;-3.878;2022-09-03T05:51:12;52981.97;;;-139.96;38.16
7906;BME280;13291;40.472;-3.878;2022-09-03T05:53:39;52981.97;;;-139.96;38.16
7906;BME280;13291;40.472;-3.878;2022-09-03T05:56:09;53042.00;;;-139.96;38.57
7906;BME280;13291;40.472;-3.878;2022-09-03T05:58:39;52965.97;;;-139.96;38.80
7906;BME280;13291;40.472;-3.878;2022-09-03T06:01:11;52997.97;;;-139.96;38.70
7906;BME280;13291;40.472;-3.878;2022-09-03T06:03:39;53018.00;;;-139.96;38.26
7906;BME280;13291;40.472;-3.878;2022-09-03T06:06:06;53014.00;;;-139.96;38.21
7906;BME280;13291;40.472;-3.878;2022-09-03T06:08:34;52965.97;;;-139.96;38.09
7906;BME280;13291;40.472;-3.878;2022-09-03T06:11:03;52997.97;;;-139.96;38.32
7906;BME280;13291;40.472;-3.878;2022-09-03T06:13:33;53014.00;;;-139.96;38.04
7906;BME280;13291;40.472;-3.878;2022-09-03T06:16:01;53034.00;;;-139.96;38.17
7906;BME280;13291;40.472;-3.878;2022-09-03T06:18:29;53003.97;;;-139.96;38.74
7906;BME280;13291;40.472;-3.878;2022-09-03T06:20:57;53001.97;;;-139.96;38.95
7906;BME280;13291;40.472;-3.878;2022-09-03T06:23:25;52989.97;;;-139.96;38.12
7906;BME280;13291;40.472;-3.878;2022-09-03T06:25:59;52951.97;;;-139.96;38.29
7906;BME280;13291;40.472;-3.878;2022-09-03T06:28:27;52993.97;;;-139.96;38.88
7906;BME280;13291;40.472;-3.878;2022-09-03T06:30:58;52985.97;;;-139.96;38.59
7906;BME280;13291;40.472;-3.878;2022-09-03T06:33:25;52983.97;;;-139.96;38.58
7906;BME280;13291;40.472;-3.878;2022-09-03T06:35:55;52991.97;;;-139.96;38.72
7906;BME280;13291;40.472;-3.878;2022-09-03T06:38:24;52981.97;;;-139.96;39.03
7906;BME280;13291;40.472;-3.878;2022-09-03T06:40:53;53005.97;;;-139.96;38.45
7906;BME280;13291;40.472;-3.878;2022-09-03T06:43:20;52977.97;;;-139.96;38.79
7906;BME280;13291;40.472;-3.878;2022-09-03T06:45:55;53001.97;;;-139.96;39.02
7906;BME280;13291;40.472;-3.878;2022-09-03T06:48:23;53003.97;;;-139.96;38.97
7906;BME280;13291;40.472;-3.878;2022-09-03T06:50:54;52989.97;;;-139.96;38.91
7906;BME280;13291;40.472;-3.878;2022-09-03T06:53:23;52989.97;;;-139.96;39.40
7906;BME280;13291;40.472;-3.878;2022-09-03T06:55:54;52997.97;;;-139.96;39.11
7906;BME280;13291;40.472;-3.878;2022-09-03T06:58:21;52983.97;;;-139.96;39.71
7906;BME280;13291;40.472;-3.878;2022-09-03T07:00:48;52999.97;;;-139.96;39.66
7906;BME280;13291;40.472;-3.878;2022-09-03T07:03:17;52981.97;;;-139.96;38.90
7906;BME280;13291;40.472;-3.878;2022-09-03T07:05:46;52993.97;;;-139.96;39.34
7906;BME280;13291;40.472;-3.878;2022-09-03T07:08:13;53016.00;;;-139.96;39.69
7906;BME280;13291;40.472;-3.878;2022-09-03T07:10:44;53005.97;;;-139.96;39.84
7906;BME280;13291;40.472;-3.878;2022-09-03T07:13:12;53001.97;;;-139.96;39.86
7906;BME280;13291;40.472;-3.878;2022-09-03T07:15:39;52975.97;;;-139.96;40.00
7906;BME280;13291;40.472;-3.878;2022-09-03T07:18:06;52969.97;;;-139.96;39.30
7906;BME280;13291;40.472;-3.878;2022-09-03T07:20:33;53014.00;;;-139.96;39.18
7906;BME280;13291;40.472;-3.878;2022-09-03T07:23:02;53014.00;;;-139.96;39.30
7906;BME280;13291;40.472;-3.878;2022-09-03T07:25:29;53009.97;;;-139.96;39.12
7906;BME280;13291;40.472;-3.878;2022-09-03T07:27:56;53016.00;;;-139.96;39.48
7906;BME280;13291;40.472;-3.878;2022-09-03T07:30:24;52997.97;;;-139.96;39.40
7906;BME280;13291;40.472;-3.878;2022-09-03T07:32:51;52987.97;;;-139.96;39.07
7906;BME280;13291;40.472;-3.878;2022-09-03T07:35:18;53009.97;;;-139.96;38.90
7906;BME280;13291;40.472;-3.878;2022-09-03T07:37:45;52981.97;;;-139.96;39.19
7906;BME280;13291;40.472;-3.878;2022-09-03T07:40:13;52983.97;;;-139.96;39.18
7906;BME280;13291;40.472;-3.878;2022-09-03T07:42:42;52979.97;;;-139.96;38.78
7906;BME280;13291;40.472;-3.878;2022-09-03T07:45:09;52985.97;;;-139.96;38.51
7906;BME280;13291;40.472;-3.878;2022-09-03T07:47:36;52979.97;;;-139.96;38.41
7906;BME280;13291;40.472;-3.878;2022-09-03T07:50:05;52963.97;;;-139.96;38.33
7906;BME280;13291;40.472;-3.878;2022-09-03T07:52:32;52989.97;;;-139.96;37.90
7906;BME280;13291;40.472;-3.878;2022-09-03T07:54:59;52961.97;;;-139.96;37.87
7906;BME280;13291;40.472;-3.878;2022-09-03T07:57:28;53007.97;;;-139.96;38.34
7906;BME280;13291;40.472;-3.878;2022-09-03T07:59:55;53009.97;;;-139.96;38.27
7906;BME280;13291;40.472;-3.878;2022-09-03T08:02:22;52975.97;;;-139.96;38.04
7906;BME280;13291;40.472;-3.878;2022-09-03T08:04:49;52983.97;;;-139.96;38.47
7906;BME280;13291;40.472;-3.878;2022-09-03T08:07:16;53009.97;;;-139.96;38.84
7906;BME280;13291;40.472;-3.878;2022-09-03T08:09:43;53009.97;;;-139.96;38.85
7906;BME280;13291;40.472;-3.878;2022-09-03T08:12:10;53005.97;;;-139.96;39.02
7906;BME280;13291;40.472;-3.878;2022-09-03T08:14:38;53012.00;;;-139.96;39.25
7906;BME280;13291;40.472;-3.878;2022-09-03T08:17:05;52961.97;;;-139.96;39.30
7906;BME280;13291;40.472;-3.878;2022-09-03T08:19:32;52997.97;;;-139.96;39.50
7906;BME280;13291;40.472;-3.878;2022-09-03T08:21:59;52983.97;;;-139.96;38.99
7906;BME280;13291;40.472;-3.878;2022-09-03T08:24:26;52971.97;;;-139.96;38.97
7906;BME280;13291;40.472;-3.878;2022-09-03T08:26:53;52969.97;;;-139.96;38.80
7906;BME280;13291;40.472;-3.878;2022-09-03T08:29:20;53007.97;;;-139.96;38.67
7906;BME280;13291;40.472;-3.878;2022-09-03T08:31:49;52987.97;;;-139.96;38.83
7906;BME280;13291;40.472;-3.878;2022-09-03T08:34:16;53001.97;;;-139.96;38.63
7906;BME280;13291;40.472;-3.878;2022-09-03T08:36:43;52963.97;;;-139.96;38.58
7906;BME280;13291;40.472;-3.878;2022-09-03T08:39:11;52941.97;;;-139.96;38.85
7906;BME280;13291;40.472;-3.878;2022-09-03T08:44:43;52939.97;;;-139.96;37.95
7906;BME280;13291;40.472;-3.878;2022-09-03T08:47:18;52977.97;;;-139.96;37.88
7906;BME280;13291;40.472;-3.878;2022-09-03T08:49:50;52959.97;;;-139.96;37.30
7906;BME280;13291;40.472;-3.878;2022-09-03T08:52:25;52957.97;;;-139.96;37.66
7906;BME280;13291;40.472;-3.878;2022-09-03T08:55:01;52939.97;;;-139.96;37.89
7906;BME280;13291;40.472;-3.878;2022-09-03T08:57:31;52965.97;;;-139.96;37.28
7906;BME280;13291;40.472;-3.878;2022-09-03T09:00:04;52921.97;;;-139.96;37.60
7906;BME280;13291;40.472;-3.878;2022-09-03T09:02:38;52961.97;;;-139.96;38.44
7906;BME280;13291;40.472;-3.878;2022-09-03T09:05:13;52961.97;;;-139.96;38.48
7906;BME280;13291;40.472;-3.878;2022-09-03T09:07:47;52951.97;;;-139.96;37.91
7906;BME280;13291;40.472;-3.878;2022-09-03T09:10:23;52949.97;;;-139.96;38.23
7906;BME280;13291;40.472;-3.878;2022-09-03T09:13:01;52937.97;;;-139.96;38.20
7906;BME280;13291;40.472;-3.878;2022-09-03T09:15:38;52923.97;;;-139.96;38.69
7906;BME280;13291;40.472;-3.878;2022-09-03T09:18:13;52953.97;;;-139.96;38.33
7906;BME280;13291;40.472;-3.878;2022-09-03T09:20:47;52933.97;;;-139.96;38.14
7906;BME280;13291;40.472;-3.878;2022-09-03T09:23:19;52945.97;;;-139.96;38.05
7906;BME280;13291;40.472;-3.878;2022-09-03T09:25:49;52941.97;;;-139.96;38.73
7906;BME280;13291;40.472;-3.878;2022-09-03T09:28:18;52949.97;;;-139.96;37.89
7906;BME280;13291;40.472;-3.878;2022-09-03T09:30:47;52945.97;;;-139.96;37.68
7906;BME280;13291;40.472;-3.878;2022-09-03T09:33:17;52941.97;;;-139.96;38.02
7906;BME280;13291;40.472;-3.878;2022-09-03T09:35:45;52943.97;;;-139.96;37.93
7906;BME280;13291;40.472;-3.878;2022-09-03T09:38:12;52931.97;;;-139.96;38.18
7906;BME280;13291;40.472;-3.878;2022-09-03T09:40:42;52941.97;;;-139.96;37.66
7906;BME280;13291;40.472;-3.878;2022-09-03T09:43:11;52917.97;;;-139.96;37.57
7906;BME280;13291;40.472;-3.878;2022-09-03T09:45:42;52939.97;;;-139.96;37.51
7906;BME280;13291;40.472;-3.878;2022-09-03T09:48:17;52929.97;;;-139.96;37.11
7906;BME280;13291;40.472;-3.878;2022-09-03T09:50:46;52945.97;;;-139.96;37.47
7906;BME280;13291;40.472;-3.878;2022-09-03T09:53:17;52931.97;;;-139.96;36.75
7906;BME280;13291;40.472;-3.878;2022-09-03T09:55:53;52943.97;;;-139.96;36.61
7906;BME280;13291;40.472;-3.878;2022-09-03T09:58:21;52933.97;;;-139.96;36.72
7906;BME280;13291;40.472;-3.878;2022-09-03T10:00:56;52933.97;;;-139.96;37.40
7906;BME280;13291;40.472;-3.878;2022-09-03T10:03:25;52933.97;;;-139.96;37.64
7906;BME280;13291;40.472;-3.878;2022-09-03T10:06:01;52933.97;;;-139.96;36.51
7906;BME280;13291;40.472;-3.878;2022-09-03T10:08:51;52927.97;;;-139.96;36.27
7906;BME280;13291;40.472;-3.878;2022-09-03T10:11:20;52939.97;;;-139.96;37.10
7906;BME280;13291;40.472;-3.878;2022-09-03T10:13:51;52937.97;;;-139.96;36.20
7906;BME280;13291;40.472;-3.878;2022-09-03T10:16:23;52919.97;;;-139.96;36.59
7906;BME280;13291;40.472;-3.878;2022-09-03T10:19:01;52911.97;;;-139.96;35.62
7906;BME280;13291;40.472;-3.878;2022-09-03T10:21:37;52905.97;;;-139.96;34.95
7906;BME280;13291;40.472;-3.878;2022-09-03T10:24:18;52915.97;;;-139.96;35.45
7906;BME280;13291;40.472;-3.878;2022-09-03T10:26:49;52917.97;;;-139.96;35.90
7906;BME280;13291;40.472;-3.878;2022-09-03T10:29:17;52921.97;;;-139.96;36.56
7906;BME280;13291;40.472;-3.878;2022-09-03T10:31:58;52941.97;;;-139.96;36.32
7906;BME280;13291;40.472;-3.878;2022-09-03T10:34:37;52919.97;;;-139.96;36.40
7906;BME280;13291;40.472;-3.878;2022-09-03T10:37:18;52897.97;;;-139.96;36.27
7906;BME280;13291;40.472;-3.878;2022-09-03T10:40:04;52939.97;;;-139.96;36.44
7906;BME280;13291;40.472;-3.878;2022-09-03T10:42:39;52933.97;;;-139.96;35.94
7906;BME280;13291;40.472;-3.878;2022-09-03T10:45:17;52907.97;;;-139.96;35.65
7906;BME280;13291;40.472;-3.878;2022-09-03T10:48:21;52901.97;;;-139.96;35.81
7906;BME280;13291;40.472;-3.878;2022-09-03T10:50:56;52893.97;;;-139.96;35.98
7906;BME280;13291;40.472;-3.878;2022-09-03T10:53:38;52955.97;;;-139.96;36.24
7906;BME280;13291;40.472;-3.878;2022-09-03T10:56:16;52927.97;;;-139.96;36.11
7906;BME280;13291;40.472;-3.878;2022-09-03T10:59:03;52889.97;;;-139.96;36.03
7906;BME280;13291;40.472;-3.878;2022-09-03T11:01:38;52909.97;;;-139.96;36.52
7906;BME280;13291;40.472;-3.878;2022-09-03T11:04:20;52909.97;;;-139.96;35.73
7906;BME280;13291;40.472;-3.878;2022-09-03T11:06:55;52919.97;;;-139.96;35.75
7906;BME280;13291;40.472;-3.878;2022-09-03T11:09:30;52911.97;;;-139.96;36.24
7906;BME280;13291;40.472;-3.878;2022-09-03T11:12:03;52933.97;;;-139.96;35.85
7906;BME280;13291;40.472;-3.878;2022-09-03T11:14:34;52923.97;;;-139.96;36.70
7906;BME280;13291;40.472;-3.878;2022-09-03T11:17:08;52913.97;;;-139.96;35.85
7906;BME280;13291;40.472;-3.878;2022-09-03T11:19:41;52881.97;;;-139.96;34.81
7906;BME280;13291;40.472;-3.878;2022-09-03T11:22:14;52891.97;;;-139.96;34.52
7906;BME280;13291;40.472;-3.878;2022-09-03T11:24:45;52921.97;;;-139.96;34.77
7906;BME280;13291;40.472;-3.878;2022-09-03T11:27:25;52893.97;;;-139.96;34.19
7906;BME280;13291;40.472;-3.878;2022-09-03T11:30:00;52893.97;;;-139.96;33.63
7906;BME280;13291;40.472;-3.878;2022-09-03T11:32:43;52901.97;;;-139.96;35.72
7906;BME280;13291;40.472;-3.878;2022-09-03T11:35:15;52917.97;;;-139.96;35.06
7906;BME280;13291;40.472;-3.878;2022-09-03T11:37:52;52893.97;;;-139.96;34.47
7906;BME280;13291;40.472;-3.878;2022-09-03T11:40:28;52885.97;;;-139.96;34.21
7906;BME280;13291;40.472;-3.878;2022-09-03T11:43:05;52913.97;;;-139.96;33.66
7906;BME280;13291;40.472;-3.878;2022-09-03T11:45:36;52909.97;;;-139.96;33.59
7906;BME280;13291;40.472;-3.878;2022-09-03T11:48:17;52891.97;;;-139.96;33.85
7906;BME280;13291;40.472;-3.878;2022-09-03T11:50:51;52907.97;;;-139.96;34.42
7906;BME280;13291;40.472;-3.878;2022-09-03T11:53:24;52905.97;;;-139.96;34.00
7906;BME280;13291;40.472;-3.878;2022-09-03T11:55:58;52909.97;;;-139.96;33.89
7906;BME280;13291;40.472;-3.878;2022-09-03T11:58:29;52887.97;;;-139.96;33.59
7906;BME280;13291;40.472;-3.878;2022-09-03T12:00:58;52881.97;;;-139.96;33.54
7906;BME280;13291;40.472;-3.878;2022-09-03T12:03:28;52895.97;;;-139.96;34.02
7906;BME280;13291;40.472;-3.878;2022-09-03T12:06:09;52899.97;;;-139.96;34.05
7906;BME280;13291;40.472;-3.878;2022-09-03T12:08:56;52899.97;;;-139.96;33.72
7906;BME280;13291;40.472;-3.878;2022-09-03T12:11:35;52901.97;;;-139.96;34.21
7906;BME280;13291;40.472;-3.878;2022-09-03T12:14:12;52915.97;;;-139.96;34.84
7906;BME280;13291;40.472;-3.878;2022-09-03T12:16:51;52893.97;;;-139.96;33.73
7906;BME280;13291;40.472;-3.878;2022-09-03T12:19:28;52889.97;;;-139.96;33.20
7906;BME280;13291;40.472;-3.878;2022-09-03T12:21:57;52889.97;;;-139.96;33.24
7906;BME280;13291;40.472;-3.878;2022-09-03T12:24:30;52897.97;;;-139.96;33.22
7906;BME280;13291;40.472;-3.878;2022-09-03T12:27:00;52901.97;;;-139.96;33.24
7906;BME280;13291;40.472;-3.878;2022-09-03T12:29:29;52887.97;;;-139.96;32.41
7906;BME280;13291;40.472;-3.878;2022-09-03T12:32:06;52881.97;;;-139.96;32.67
7906;BME280;13291;40.472;-3.878;2022-09-03T12:34:34;52859.97;;;-139.96;33.30
7906;BME280;13291;40.472;-3.878;2022-09-03T12:37:02;52875.97;;;-139.96;32.13
7906;BME280;13291;40.472;-3.878;2022-09-03T12:39:30;52865.97;;;-139.96;32.48
7906;BME280;13291;40.472;-3.878;2022-09-03T12:42:02;52897.97;;;-139.96;32.41
7906;BME280;13291;40.472;-3.878;2022-09-03T12:44:31;52857.97;;;-139.96;31.88
7906;BME280;13291;40.472;-3.878;2022-09-03T12:47:05;52881.97;;;-139.96;32.06
7906;BME280;13291;40.472;-3.878;2022-09-03T12:49:34;52885.97;;;-139.96;33.44
7906;BME280;13291;40.472;-3.878;2022-09-03T12:52:07;52839.97;;;-139.96;32.64
7906;BME280;13291;40.472;-3.878;2022-09-03T12:54:43;52865.97;;;-139.96;32.17
7906;BME280;13291;40.472;-3.878;2022-09-03T12:57:16;52865.97;;;-139.96;33.34
7906;BME280;13291;40.472;-3.878;2022-09-03T12:59:46;52861.97;;;-139.96;33.18
7906;BME280;13291;40.472;-3.878;2022-09-03T13:02:18;52857.97;;;-139.96;32.13
7906;BME280;13291;40.472;-3.878;2022-09-03T13:04:46;52861.97;;;-139.96;31.06